sensor_id;sensor_type;location;lat;lon;timestamp;temperature;humidity
19555;DHT22;9924;50.828;6.440;2023-01-15T00:01:50;6.60;99.90
19555;DHT22;9924;50.828;6.440;2023-01-15T00:04:35;6.60;99.90
19555;DHT22;9924;50.828;6.440;2023-01-15T00:07:19;6.50;99.90
19555;DHT22;9924;50.828;6.440;2023-01-15T00:10:04;6.50;99.90
19555;DHT22;9924;50.828;6.440;2023-01-15T00:12:49;6.40;99.90
19555;DHT22;9924;50.828;6.440;2023-01-15T00:15:34;6.40;99.90
19555;DHT22;9924;50.828;6.440;2023-01-15T00:18:19;6.30;99.90
19555;DHT22;9924;50.828;6.440;2023-01-15T00:21:06;6.20;99.90
19555;DHT22;9924;50.828;6.440;2023-01-15T00:23:51;6.20;99.90
19555;DHT22;9924;50.828;6.440;2023-01-15T00:26:55;6.10;99.90
19555;DHT22;9924;50.828;6.440;2023-01-15T00:29:58;6.10;99.90
19555;DHT22;9924;50.828;6.440;2023-01-15T00:32:43;6.00;99.90
19555;DHT22;9924;50.828;6.440;2023-01-15T00:35:28;6.00;99.90
19555;DHT22;9924;50.828;6.440;2023-01-15T00:38:12;6.00;99.90
19555;DHT22;9924;50.828;6.440;2023-01-15T00:40:57;6.00;99.90
19555;DHT22;9924;50.828;6.440;2023-01-15T00:43:42;6.00;99.90
19555;DHT22;9924;50.828;6.440;2023-01-15T00:46:27;5.90;99.90
19555;DHT22;9924;50.828;6.440;2023-01-15T00:49:11;5.90;99.90
19555;DHT22;9924;50.828;6.440;2023-01-15T00:51:56;5.90;99.90
19555;DHT22;9924;50.828;6.440;2023-01-15T00:54:40;5.80;99.90
19555;DHT22;9924;50.828;6.440;2023-01-15T00:57:24;5.80;99.90
19555;DHT22;9924;50.828;6.440;2023-01-15T01:00:09;5.80;99.90
19555;DHT22;9924;50.828;6.440;2023-01-15T01:02:56;5.90;99.90
19555;DHT22;9924;50.828;6.440;2023-01-15T01:05:40;5.90;99.90
19555;DHT22;9924;50.828;6.440;2023-01-15T01:08:25;6.00;99.90
19555;DHT22;9924;50.828;6.440;2023-01-15T01:11:11;6.00;99.90
19555;DHT22;9924;50.828;6.440;2023-01-15T01:13:57;6.00;99.90
19555;DHT22;9924;50.828;6.440;2023-01-15T01:16:41;6.00;99.90
19555;DHT22;9924;50.828;6.440;2023-01-15T01:19:26;6.00;99.90
19555;DHT22;9924;50.828;6.440;2023-01-15T01:22:10;6.10;99.90
19555;DHT22;9924;50.828;6.440;2023-01-15T01:24:55;6.10;99.90
19555;DHT22;9924;50.828;6.440;2023-01-15T01:27:39;6.10;99.90
19555;DHT22;9924;50.828;6.440;2023-01-15T01:30:26;6.10;99.90
19555;DHT22;9924;50.828;6.440;2023-01-15T01:33:11;6.20;99.90
19555;DHT22;9924;50.828;6.440;2023-01-15T01:35:55;6.20;99.90
19555;DHT22;9924;50.828;6.440;2023-01-15T01:38:40;6.10;99.90
19555;DHT22;9924;50.828;6.440;2023-01-15T01:41:25;6.10;99.90
19555;DHT22;9924;50.828;6.440;2023-01-15T01:47:21;6.10;99.90
19555;DHT22;9924;50.828;6.440;2023-01-15T01:50:09;6.10;99.90
19555;DHT22;9924;50.828;6.440;2023-01-15T01:52:58;6.10;99.90
19555;DHT22;9924;50.828;6.440;2023-01-15T01:55:43;6.10;99.90
19555;DHT22;9924;50.828;6.440;2023-01-15T01:58:30;6.10;99.90
19555;DHT22;9924;50.828;6.440;2023-01-15T02:01:16;6.00;99.90
19555;DHT22;9924;50.828;6.440;2023-01-15T02:04:00;6.00;99.90
19555;DHT22;9924;50.828;6.440;2023-01-15T02:06:46;6.00;99.90
19555;DHT22;9924;50.828;6.440;2023-01-15T02:09:30;6.00;99.90
19555;DHT22;9924;50.828;6.440;2023-01-15T02:12:27;6.00;99.90
19555;DHT22;9924;50.828;6.440;2023-01-15T02:15:16;5.90;99.90
19555;DHT22;9924;50.828;6.440;2023-01-15T02:33:16;6.00;99.90
19555;DHT22;9924;50.828;6.440;2023-01-15T02:36:02;6.00;99.90
19555;DHT22;9924;50.828;6.440;2023-01-15T02:38:52;6.00;99.90
19555;DHT22;9924;50.828;6.440;2023-01-15T02:41:44;6.00;99.90
19555;DHT22;9924;50.828;6.440;2023-01-15T02:44:31;6.00;99.90
19555;DHT22;9924;50.828;6.440;2023-01-15T02:47:20;6.00;99.90
19555;DHT22;9924;50.828;6.440;2023-01-15T02:50:11;6.10;99.90
19555;DHT22;9924;50.828;6.440;2023-01-15T02:53:00;6.10;99.90
19555;DHT22;9924;50.828;6.440;2023-01-15T02:55:49;6.10;99.90
19555;DHT22;9924;50.828;6.440;2023-01-15T02:58:37;6.10;99.90
19555;DHT22;9924;50.828;6.440;2023-01-15T03:01:26;6.20;99.90
19555;DHT22;9924;50.828;6.440;2023-01-15T03:07:11;6.20;99.90
19555;DHT22;9924;50.828;6.440;2023-01-15T03:09:57;6.20;99.90
19555;DHT22;9924;50.828;6.440;2023-01-15T03:12:53;6.20;99.90
19555;DHT22;9924;50.828;6.440;2023-01-15T03:15:59;6.20;99.90
19555;DHT22;9924;50.828;6.440;2023-01-15T03:19:10;6.20;99.90
19555;DHT22;9924;50.828;6.440;2023-01-15T03:27:49;6.20;99.90
19555;DHT22;9924;50.828;6.440;2023-01-15T03:30:36;6.10;99.90
19555;DHT22;9924;50.828;6.440;2023-01-15T03:33:20;6.10;99.90
19555;DHT22;9924;50.828;6.440;2023-01-15T03:36:05;6.10;99.90
19555;DHT22;9924;50.828;6.440;2023-01-15T03:38:50;6.10;99.90
19555;DHT22;9924;50.828;6.440;2023-01-15T03:41:46;6.10;99.90
19555;DHT22;9924;50.828;6.440;2023-01-15T03:44:51;6.10;99.90
19555;DHT22;9924;50.828;6.440;2023-01-15T03:50:46;6.20;99.90
19555;DHT22;9924;50.828;6.440;2023-01-15T03:53:50;6.10;99.90
19555;DHT22;9924;50.828;6.440;2023-01-15T03:59:51;6.20;99.90
19555;DHT22;9924;50.828;6.440;2023-01-15T04:02:37;6.20;99.90
19555;DHT22;9924;50.828;6.440;2023-01-15T04:05:24;6.20;99.90
19555;DHT22;9924;50.828;6.440;2023-01-15T04:08:10;6.20;99.90
19555;DHT22;9924;50.828;6.440;2023-01-15T04:10:57;6.20;99.90
19555;DHT22;9924;50.828;6.440;2023-01-15T04:13:42;6.20;99.90
19555;DHT22;9924;50.828;6.440;2023-01-15T04:16:29;6.20;99.90
19555;DHT22;9924;50.828;6.440;2023-01-15T04:19:13;6.30;99.90
19555;DHT22;9924;50.828;6.440;2023-01-15T04:21:58;6.30;99.90
19555;DHT22;9924;50.828;6.440;2023-01-15T04:24:42;6.20;99.90
19555;DHT22;9924;50.828;6.440;2023-01-15T04:27:26;6.20;99.90
19555;DHT22;9924;50.828;6.440;2023-01-15T04:30:11;6.20;99.90
19555;DHT22;9924;50.828;6.440;2023-01-15T04:32:55;6.20;99.90
19555;DHT22;9924;50.828;6.440;2023-01-15T04:35:40;6.20;99.90
19555;DHT22;9924;50.828;6.440;2023-01-15T04:38:24;6.20;99.90
19555;DHT22;9924;50.828;6.440;2023-01-15T04:41:09;6.20;99.90
19555;DHT22;9924;50.828;6.440;2023-01-15T04:44:12;6.20;99.90
19555;DHT22;9924;50.828;6.440;2023-01-15T04:46:57;6.20;99.90
19555;DHT22;9924;50.828;6.440;2023-01-15T04:49:43;6.30;99.90
19555;DHT22;9924;50.828;6.440;2023-01-15T04:52:27;6.20;99.90
19555;DHT22;9924;50.828;6.440;2023-01-15T04:55:11;6.20;99.90
19555;DHT22;9924;50.828;6.440;2023-01-15T04:57:56;6.30;99.90
19555;DHT22;9924;50.828;6.440;2023-01-15T05:00:40;6.30;99.90
19555;DHT22;9924;50.828;6.440;2023-01-15T05:03:25;6.30;99.90
19555;DHT22;9924;50.828;6.440;2023-01-15T05:06:09;6.30;99.90
19555;DHT22;9924;50.828;6.440;2023-01-15T05:08:53;6.30;99.90
19555;DHT22;9924;50.828;6.440;2023-01-15T05:11:38;6.30;99.90
19555;DHT22;9924;50.828;6.440;2023-01-15T05:14:23;6.30;99.90
19555;DHT22;9924;50.828;6.440;2023-01-15T05:17:07;6.20;99.90
19555;DHT22;9924;50.828;6.440;2023-01-15T05:19:52;6.20;99.90
19555;DHT22;9924;50.828;6.440;2023-01-15T05:22:36;6.20;99.90
19555;DHT22;9924;50.828;6.440;2023-01-15T05:25:20;6.20;99.90
19555;DHT22;9924;50.828;6.440;2023-01-15T05:28:06;6.20;99.90
19555;DHT22;9924;50.828;6.440;2023-01-15T05:30:50;6.10;99.90
19555;DHT22;9924;50.828;6.440;2023-01-15T05:33:36;6.00;99.90
19555;DHT22;9924;50.828;6.440;2023-01-15T05:36:26;5.90;99.90
19555;DHT22;9924;50.828;6.440;2023-01-15T05:39:10;5.90;99.90
19555;DHT22;9924;50.828;6.440;2023-01-15T05:41:54;5.90;99.90
19555;DHT22;9924;50.828;6.440;2023-01-15T05:44:39;5.80;99.90
19555;DHT22;9924;50.828;6.440;2023-01-15T05:47:23;5.80;99.90
19555;DHT22;9924;50.828;6.440;2023-01-15T05:50:08;5.70;99.90
19555;DHT22;9924;50.828;6.440;2023-01-15T05:52:53;5.70;99.90
19555;DHT22;9924;50.828;6.440;2023-01-15T05:55:37;5.70;99.90
19555;DHT22;9924;50.828;6.440;2023-01-15T05:58:22;5.70;99.90
19555;DHT22;9924;50.828;6.440;2023-01-15T06:01:09;5.70;99.90
19555;DHT22;9924;50.828;6.440;2023-01-15T06:04:00;5.70;99.90
19555;DHT22;9924;50.828;6.440;2023-01-15T06:06:45;5.70;99.90
19555;DHT22;9924;50.828;6.440;2023-01-15T06:09:30;5.70;99.90
19555;DHT22;9924;50.828;6.440;2023-01-15T06:12:14;5.80;99.90
19555;DHT22;9924;50.828;6.440;2023-01-15T06:14:59;5.80;99.90
19555;DHT22;9924;50.828;6.440;2023-01-15T06:17:43;5.80;99.90
19555;DHT22;9924;50.828;6.440;2023-01-15T06:20:28;5.90;99.90
19555;DHT22;9924;50.828;6.440;2023-01-15T06:23:13;5.80;99.90
19555;DHT22;9924;50.828;6.440;2023-01-15T06:26:04;5.80;99.90
19555;DHT22;9924;50.828;6.440;2023-01-15T06:28:49;5.80;99.90
19555;DHT22;9924;50.828;6.440;2023-01-15T06:31:33;5.80;99.90
19555;DHT22;9924;50.828;6.440;2023-01-15T06:34:18;5.80;99.90
19555;DHT22;9924;50.828;6.440;2023-01-15T06:37:03;5.80;99.90
19555;DHT22;9924;50.828;6.440;2023-01-15T06:39:47;5.80;99.90
19555;DHT22;9924;50.828;6.440;2023-01-15T06:42:31;5.80;99.90
19555;DHT22;9924;50.828;6.440;2023-01-15T06:45:39;5.90;99.90
19555;DHT22;9924;50.828;6.440;2023-01-15T06:48:42;5.90;99.90
19555;DHT22;9924;50.828;6.440;2023-01-15T06:51:26;5.90;99.90
19555;DHT22;9924;50.828;6.440;2023-01-15T06:54:11;5.90;99.90
19555;DHT22;9924;50.828;6.440;2023-01-15T06:56:55;5.90;99.90
19555;DHT22;9924;50.828;6.440;2023-01-15T06:59:39;5.90;99.90
19555;DHT22;9924;50.828;6.440;2023-01-15T07:02:24;5.80;99.90
19555;DHT22;9924;50.828;6.440;2023-01-15T07:05:09;5.80;99.90
19555;DHT22;9924;50.828;6.440;2023-01-15T07:07:53;5.80;99.90
19555;DHT22;9924;50.828;6.440;2023-01-15T07:10:38;5.80;99.90
19555;DHT22;9924;50.828;6.440;2023-01-15T07:13:23;5.80;99.90
19555;DHT22;9924;50.828;6.440;2023-01-15T07:16:07;5.70;99.90
19555;DHT22;9924;50.828;6.440;2023-01-15T07:19:10;5.70;99.90
19555;DHT22;9924;50.828;6.440;2023-01-15T07:21:54;5.70;99.90
19555;DHT22;9924;50.828;6.440;2023-01-15T07:24:39;5.60;99.90
19555;DHT22;9924;50.828;6.440;2023-01-15T07:27:23;5.70;99.90
19555;DHT22;9924;50.828;6.440;2023-01-15T07:30:08;5.60;99.90
19555;DHT22;9924;50.828;6.440;2023-01-15T07:32:55;5.60;99.90
19555;DHT22;9924;50.828;6.440;2023-01-15T07:35:39;5.60;99.90
19555;DHT22;9924;50.828;6.440;2023-01-15T07:38:24;5.60;99.90
19555;DHT22;9924;50.828;6.440;2023-01-15T07:41:11;5.60;99.90
19555;DHT22;9924;50.828;6.440;2023-01-15T07:44:14;5.60;99.90
19555;DHT22;9924;50.828;6.440;2023-01-15T07:47:18;5.60;99.90
19555;DHT22;9924;50.828;6.440;2023-01-15T07:50:23;5.50;99.90
19555;DHT22;9924;50.828;6.440;2023-01-15T07:53:07;5.50;99.90
19555;DHT22;9924;50.828;6.440;2023-01-15T07:55:52;5.40;99.90
19555;DHT22;9924;50.828;6.440;2023-01-15T07:58:36;5.40;99.90
19555;DHT22;9924;50.828;6.440;2023-01-15T08:01:21;5.20;99.90
19555;DHT22;9924;50.828;6.440;2023-01-15T08:04:05;5.10;99.90
19555;DHT22;9924;50.828;6.440;2023-01-15T08:06:50;4.90;99.90
19555;DHT22;9924;50.828;6.440;2023-01-15T08:09:35;4.80;99.90
19555;DHT22;9924;50.828;6.440;2023-01-15T08:12:20;4.70;99.90
19555;DHT22;9924;50.828;6.440;2023-01-15T08:15:24;4.70;99.90
19555;DHT22;9924;50.828;6.440;2023-01-15T08:18:09;4.70;99.90
19555;DHT22;9924;50.828;6.440;2023-01-15T08:20:53;4.70;99.90
19555;DHT22;9924;50.828;6.440;2023-01-15T08:23:38;4.80;99.90
19555;DHT22;9924;50.828;6.440;2023-01-15T08:26:23;4.90;99.90
19555;DHT22;9924;50.828;6.440;2023-01-15T08:29:07;5.00;99.90
19555;DHT22;9924;50.828;6.440;2023-01-15T08:31:51;5.10;99.90
19555;DHT22;9924;50.828;6.440;2023-01-15T08:34:36;5.20;99.90
19555;DHT22;9924;50.828;6.440;2023-01-15T08:37:22;5.30;99.90
19555;DHT22;9924;50.828;6.440;2023-01-15T08:40:09;5.30;99.90
19555;DHT22;9924;50.828;6.440;2023-01-15T08:42:54;5.40;99.90
19555;DHT22;9924;50.828;6.440;2023-01-15T08:45:38;5.40;99.90
19555;DHT22;9924;50.828;6.440;2023-01-15T08:48:23;5.50;99.90
19555;DHT22;9924;50.828;6.440;2023-01-15T08:51:10;5.50;99.90
19555;DHT22;9924;50.828;6.440;2023-01-15T08:53:57;5.60;99.90
19555;DHT22;9924;50.828;6.440;2023-01-15T08:56:46;5.60;99.90
19555;DHT22;9924;50.828;6.440;2023-01-15T08:59:31;5.60;99.90
19555;DHT22;9924;50.828;6.440;2023-01-15T09:02:15;5.60;99.90
19555;DHT22;9924;50.828;6.440;2023-01-15T09:05:00;5.60;99.90
19555;DHT22;9924;50.828;6.440;2023-01-15T09:07:45;5.60;99.90
19555;DHT22;9924;50.828;6.440;2023-01-15T09:10:29;5.60;99.90
19555;DHT22;9924;50.828;6.440;2023-01-15T09:13:13;5.50;99.90
19555;DHT22;9924;50.828;6.440;2023-01-15T09:16:02;5.50;99.90
19555;DHT22;9924;50.828;6.440;2023-01-15T09:18:48;5.50;99.90
19555;DHT22;9924;50.828;6.440;2023-01-15T09:21:33;5.50;99.90
19555;DHT22;9924;50.828;6.440;2023-01-15T09:24:18;5.50;99.90
19555;DHT22;9924;50.828;6.440;2023-01-15T09:27:02;5.50;99.90
19555;DHT22;9924;50.828;6.440;2023-01-15T09:29:46;5.50;99.90
19555;DHT22;9924;50.828;6.440;2023-01-15T09:32:31;5.60;99.90
19555;DHT22;9924;50.828;6.440;2023-01-15T09:35:16;5.80;99.90
19555;DHT22;9924;50.828;6.440;2023-01-15T09:38:00;6.10;99.90
19555;DHT22;9924;50.828;6.440;2023-01-15T09:40:52;6.40;99.90
19555;DHT22;9924;50.828;6.440;2023-01-15T09:43:45;6.50;99.90
19555;DHT22;9924;50.828;6.440;2023-01-15T09:49:50;7.10;99.90
19555;DHT22;9924;50.828;6.440;2023-01-15T09:55:39;7.50;99.90
19555;DHT22;9924;50.828;6.440;2023-01-15T09:58:36;7.50;99.90
19555;DHT22;9924;50.828;6.440;2023-01-15T10:01:28;7.60;99.90
19555;DHT22;9924;50.828;6.440;2023-01-15T10:04:28;7.70;99.90
19555;DHT22;9924;50.828;6.440;2023-01-15T10:10:21;7.90;99.90
19555;DHT22;9924;50.828;6.440;2023-01-15T10:13:44;8.00;99.90
19555;DHT22;9924;50.828;6.440;2023-01-15T10:16:31;8.20;99.90
19555;DHT22;9924;50.828;6.440;2023-01-15T10:19:17;8.40;99.90
19555;DHT22;9924;50.828;6.440;2023-01-15T10:22:20;8.30;99.90
19555;DHT22;9924;50.828;6.440;2023-01-15T10:25:15;8.30;99.90
19555;DHT22;9924;50.828;6.440;2023-01-15T10:28:08;8.30;99.90
19555;DHT22;9924;50.828;6.440;2023-01-15T10:30:56;8.20;99.90
19555;DHT22;9924;50.828;6.440;2023-01-15T10:38:04;7.90;99.90
19555;DHT22;9924;50.828;6.440;2023-01-15T10:43:48;8.20;99.90
19555;DHT22;9924;50.828;6.440;2023-01-15T10:46:36;8.40;99.90
19555;DHT22;9924;50.828;6.440;2023-01-15T10:49:27;8.30;99.90
19555;DHT22;9924;50.828;6.440;2023-01-15T10:55:23;8.30;99.90
19555;DHT22;9924;50.828;6.440;2023-01-15T11:01:24;8.60;99.90
19555;DHT22;9924;50.828;6.440;2023-01-15T11:04:10;8.50;99.90
19555;DHT22;9924;50.828;6.440;2023-01-15T11:06:58;8.60;99.90
19555;DHT22;9924;50.828;6.440;2023-01-15T11:09:44;8.80;99.90
19555;DHT22;9924;50.828;6.440;2023-01-15T11:12:28;8.80;99.90
19555;DHT22;9924;50.828;6.440;2023-01-15T11:15:33;8.40;99.90
19555;DHT22;9924;50.828;6.440;2023-01-15T11:18:41;8.60;99.90
19555;DHT22;9924;50.828;6.440;2023-01-15T11:21:46;8.40;99.90
19555;DHT22;9924;50.828;6.440;2023-01-15T11:24:31;8.20;99.90
19555;DHT22;9924;50.828;6.440;2023-01-15T11:27:27;8.00;99.90
19555;DHT22;9924;50.828;6.440;2023-01-15T11:30:52;8.00;99.90
19555;DHT22;9924;50.828;6.440;2023-01-15T11:33:38;7.80;99.90
19555;DHT22;9924;50.828;6.440;2023-01-15T11:36:25;7.60;99.90
19555;DHT22;9924;50.828;6.440;2023-01-15T11:39:39;7.50;99.90
19555;DHT22;9924;50.828;6.440;2023-01-15T11:42:23;7.20;99.90
19555;DHT22;9924;50.828;6.440;2023-01-15T11:45:26;7.00;99.90
19555;DHT22;9924;50.828;6.440;2023-01-15T11:48:41;7.00;99.90
19555;DHT22;9924;50.828;6.440;2023-01-15T11:51:46;7.10;99.90
19555;DHT22;9924;50.828;6.440;2023-01-15T11:54:39;7.10;99.90
19555;DHT22;9924;50.828;6.440;2023-01-15T11:57:35;6.90;99.90
19555;DHT22;9924;50.828;6.440;2023-01-15T12:00:23;6.80;99.90
19555;DHT22;9924;50.828;6.440;2023-01-15T12:03:20;6.60;99.90
19555;DHT22;9924;50.828;6.440;2023-01-15T12:06:09;6.60;99.90
19555;DHT22;9924;50.828;6.440;2023-01-15T12:15:27;7.50;99.90
19555;DHT22;9924;50.828;6.440;2023-01-15T12:30:24;8.70;99.90
19555;DHT22;9924;50.828;6.440;2023-01-15T12:33:41;9.00;99.90
19555;DHT22;9924;50.828;6.440;2023-01-15T12:39:18;9.20;99.90
19555;DHT22;9924;50.828;6.440;2023-01-15T12:42:08;9.50;99.90
19555;DHT22;9924;50.828;6.440;2023-01-15T12:45:25;9.50;99.90
19555;DHT22;9924;50.828;6.440;2023-01-15T12:48:18;9.30;99.90
19555;DHT22;9924;50.828;6.440;2023-01-15T12:51:05;8.80;99.90
19555;DHT22;9924;50.828;6.440;2023-01-15T12:54:00;8.10;99.90
19555;DHT22;9924;50.828;6.440;2023-01-15T12:59:43;7.90;99.90
19555;DHT22;9924;50.828;6.440;2023-01-15T13:02:36;8.00;99.90
19555;DHT22;9924;50.828;6.440;2023-01-15T13:05:31;8.40;99.90
19555;DHT22;9924;50.828;6.440;2023-01-15T13:08:32;9.20;99.90
19555;DHT22;9924;50.828;6.440;2023-01-15T13:11:19;9.50;99.90
19555;DHT22;9924;50.828;6.440;2023-01-15T13:14:07;9.10;99.90
19555;DHT22;9924;50.828;6.440;2023-01-15T13:17:07;8.20;99.90
19555;DHT22;9924;50.828;6.440;2023-01-15T13:20:35;7.50;99.90
19555;DHT22;9924;50.828;6.440;2023-01-15T13:32:22;8.80;99.90
19555;DHT22;9924;50.828;6.440;2023-01-15T13:35:44;8.80;99.90
19555;DHT22;9924;50.828;6.440;2023-01-15T13:38:21;8.90;99.90
19555;DHT22;9924;50.828;6.440;2023-01-15T13:41:07;8.70;99.90
19555;DHT22;9924;50.828;6.440;2023-01-15T13:43:52;8.20;99.90
19555;DHT22;9924;50.828;6.440;2023-01-15T13:46:40;8.00;99.90
19555;DHT22;9924;50.828;6.440;2023-01-15T13:49:33;7.70;99.90
19555;DHT22;9924;50.828;6.440;2023-01-15T13:52:37;7.70;99.90
19555;DHT22;9924;50.828;6.440;2023-01-15T13:55:47;7.60;99.90
19555;DHT22;9924;50.828;6.440;2023-01-15T13:58:37;7.50;99.90
19555;DHT22;9924;50.828;6.440;2023-01-15T14:01:32;7.40;99.90
19555;DHT22;9924;50.828;6.440;2023-01-15T14:04:16;7.30;99.90
19555;DHT22;9924;50.828;6.440;2023-01-15T14:07:01;7.30;99.90
19555;DHT22;9924;50.828;6.440;2023-01-15T14:09:45;7.20;99.90
19555;DHT22;9924;50.828;6.440;2023-01-15T14:12:44;7.20;99.90
19555;DHT22;9924;50.828;6.440;2023-01-15T14:28:32;7.10;99.90
19555;DHT22;9924;50.828;6.440;2023-01-15T14:37:04;7.00;99.90
19555;DHT22;9924;50.828;6.440;2023-01-15T14:39:53;7.00;99.90
19555;DHT22;9924;50.828;6.440;2023-01-15T14:42:41;7.00;99.90
19555;DHT22;9924;50.828;6.440;2023-01-15T14:45:46;7.00;99.90
19555;DHT22;9924;50.828;6.440;2023-01-15T14:48:36;6.90;99.90
19555;DHT22;9924;50.828;6.440;2023-01-15T14:51:27;6.90;99.90
19555;DHT22;9924;50.828;6.440;2023-01-15T14:54:16;6.90;99.90
19555;DHT22;9924;50.828;6.440;2023-01-15T14:57:06;6.90;99.90
19555;DHT22;9924;50.828;6.440;2023-01-15T14:59:58;6.80;99.90
19555;DHT22;9924;50.828;6.440;2023-01-15T15:02:44;6.70;99.90
19555;DHT22;9924;50.828;6.440;2023-01-15T15:05:32;6.60;99.90
19555;DHT22;9924;50.828;6.440;2023-01-15T15:08:18;6.50;99.90
19555;DHT22;9924;50.828;6.440;2023-01-15T15:11:04;6.40;99.90
19555;DHT22;9924;50.828;6.440;2023-01-15T15:14:11;6.30;99.90
19555;DHT22;9924;50.828;6.440;2023-01-15T15:16:59;6.30;99.90
19555;DHT22;9924;50.828;6.440;2023-01-15T15:19:48;6.30;99.90
19555;DHT22;9924;50.828;6.440;2023-01-15T15:22:35;6.30;99.90
19555;DHT22;9924;50.828;6.440;2023-01-15T15:25:23;6.40;99.90
19555;DHT22;9924;50.828;6.440;2023-01-15T15:28:10;6.40;99.90
19555;DHT22;9924;50.828;6.440;2023-01-15T15:30:56;6.50;99.90
19555;DHT22;9924;50.828;6.440;2023-01-15T15:33:45;6.50;99.90
19555;DHT22;9924;50.828;6.440;2023-01-15T15:36:31;6.50;99.90
19555;DHT22;9924;50.828;6.440;2023-01-15T15:42:39;6.40;99.90
19555;DHT22;9924;50.828;6.440;2023-01-15T15:45:55;6.40;99.90
19555;DHT22;9924;50.828;6.440;2023-01-15T15:49:06;6.50;99.90
19555;DHT22;9924;50.828;6.440;2023-01-15T15:51:52;6.50;99.90
19555;DHT22;9924;50.828;6.440;2023-01-15T15:54:37;6.60;99.90
19555;DHT22;9924;50.828;6.440;2023-01-15T15:57:21;6.60;99.90
19555;DHT22;9924;50.828;6.440;2023-01-15T16:00:17;6.60;99.90
19555;DHT22;9924;50.828;6.440;2023-01-15T16:03:16;6.70;99.90
19555;DHT22;9924;50.828;6.440;2023-01-15T16:06:03;6.70;99.90
19555;DHT22;9924;50.828;6.440;2023-01-15T16:08:52;6.60;99.90
19555;DHT22;9924;50.828;6.440;2023-01-15T16:11:38;6.60;99.90
19555;DHT22;9924;50.828;6.440;2023-01-15T16:14:27;6.50;99.90
19555;DHT22;9924;50.828;6.440;2023-01-15T16:17:14;6.60;99.90
19555;DHT22;9924;50.828;6.440;2023-01-15T16:19:58;6.60;99.90
19555;DHT22;9924;50.828;6.440;2023-01-15T16:23:00;6.60;99.90
19555;DHT22;9924;50.828;6.440;2023-01-15T16:25:55;6.60;99.90
19555;DHT22;9924;50.828;6.440;2023-01-15T16:28:45;6.50;99.90
19555;DHT22;9924;50.828;6.440;2023-01-15T16:31:35;6.40;99.90
19555;DHT22;9924;50.828;6.440;2023-01-15T16:34:31;6.40;99.90
19555;DHT22;9924;50.828;6.440;2023-01-15T16:37:27;6.30;99.90
19555;DHT22;9924;50.828;6.440;2023-01-15T16:40:32;6.30;99.90
19555;DHT22;9924;50.828;6.440;2023-01-15T16:43:25;6.30;99.90
19555;DHT22;9924;50.828;6.440;2023-01-15T16:46:16;6.30;99.90
19555;DHT22;9924;50.828;6.440;2023-01-15T16:49:21;6.30;99.90
19555;DHT22;9924;50.828;6.440;2023-01-15T16:52:35;6.30;99.90
19555;DHT22;9924;50.828;6.440;2023-01-15T16:58:30;6.40;99.90
19555;DHT22;9924;50.828;6.440;2023-01-15T17:01:37;6.30;99.90
19555;DHT22;9924;50.828;6.440;2023-01-15T17:04:32;6.30;99.90
19555;DHT22;9924;50.828;6.440;2023-01-15T17:07:19;6.20;99.90
19555;DHT22;9924;50.828;6.440;2023-01-15T17:10:19;6.10;99.90
19555;DHT22;9924;50.828;6.440;2023-01-15T17:13:03;6.10;99.90
19555;DHT22;9924;50.828;6.440;2023-01-15T17:16:03;6.20;99.90
19555;DHT22;9924;50.828;6.440;2023-01-15T17:18:49;6.10;99.90
19555;DHT22;9924;50.828;6.440;2023-01-15T17:21:36;6.10;99.90
19555;DHT22;9924;50.828;6.440;2023-01-15T17:24:21;6.10;99.90
19555;DHT22;9924;50.828;6.440;2023-01-15T17:27:05;6.10;99.90
19555;DHT22;9924;50.828;6.440;2023-01-15T17:29:50;6.10;99.90
19555;DHT22;9924;50.828;6.440;2023-01-15T17:32:34;6.00;99.90
19555;DHT22;9924;50.828;6.440;2023-01-15T17:35:28;6.10;99.90
19555;DHT22;9924;50.828;6.440;2023-01-15T17:38:13;6.00;99.90
19555;DHT22;9924;50.828;6.440;2023-01-15T17:40:58;6.00;99.90
19555;DHT22;9924;50.828;6.440;2023-01-15T17:43:43;5.90;99.90
19555;DHT22;9924;50.828;6.440;2023-01-15T17:46:27;5.80;99.90
19555;DHT22;9924;50.828;6.440;2023-01-15T17:49:12;5.70;99.90
19555;DHT22;9924;50.828;6.440;2023-01-15T17:51:57;5.70;99.90
19555;DHT22;9924;50.828;6.440;2023-01-15T17:54:42;5.60;99.90
19555;DHT22;9924;50.828;6.440;2023-01-15T17:57:45;5.60;99.90
19555;DHT22;9924;50.828;6.440;2023-01-15T18:00:48;5.50;99.90
19555;DHT22;9924;50.828;6.440;2023-01-15T18:03:52;5.50;99.90
19555;DHT22;9924;50.828;6.440;2023-01-15T18:06:56;5.50;99.90
19555;DHT22;9924;50.828;6.440;2023-01-15T18:09:40;5.40;99.90
19555;DHT22;9924;50.828;6.440;2023-01-15T18:12:26;5.50;99.90
19555;DHT22;9924;50.828;6.440;2023-01-15T18:15:10;5.50;99.90
19555;DHT22;9924;50.828;6.440;2023-01-15T18:17:55;5.60;99.90
19555;DHT22;9924;50.828;6.440;2023-01-15T18:20:40;5.60;99.90
19555;DHT22;9924;50.828;6.440;2023-01-15T18:23:26;5.60;99.90
19555;DHT22;9924;50.828;6.440;2023-01-15T18:26:11;5.70;99.90
19555;DHT22;9924;50.828;6.440;2023-01-15T18:28:55;5.60;99.90
19555;DHT22;9924;50.828;6.440;2023-01-15T18:31:39;5.60;99.90
19555;DHT22;9924;50.828;6.440;2023-01-15T18:34:24;5.60;99.90
19555;DHT22;9924;50.828;6.440;2023-01-15T18:37:08;5.70;99.90
19555;DHT22;9924;50.828;6.440;2023-01-15T18:39:53;5.80;99.90
19555;DHT22;9924;50.828;6.440;2023-01-15T18:42:40;5.70;99.90
19555;DHT22;9924;50.828;6.440;2023-01-15T18:45:47;5.60;99.90
19555;DHT22;9924;50.828;6.440;2023-01-15T18:48:51;5.50;99.90
19555;DHT22;9924;50.828;6.440;2023-01-15T18:51:36;5.50;99.90
19555;DHT22;9924;50.828;6.440;2023-01-15T18:54:20;5.60;99.90
19555;DHT22;9924;50.828;6.440;2023-01-15T18:57:05;5.70;99.90
19555;DHT22;9924;50.828;6.440;2023-01-15T18:59:50;5.70;99.90
19555;DHT22;9924;50.828;6.440;2023-01-15T19:02:35;5.60;99.90
19555;DHT22;9924;50.828;6.440;2023-01-15T19:05:20;5.60;99.90
19555;DHT22;9924;50.828;6.440;2023-01-15T19:08:05;5.60;99.90
19555;DHT22;9924;50.828;6.440;2023-01-15T19:10:49;5.60;99.90
19555;DHT22;9924;50.828;6.440;2023-01-15T19:13:34;5.50;99.90
19555;DHT22;9924;50.828;6.440;2023-01-15T19:16:18;5.50;99.90
19555;DHT22;9924;50.828;6.440;2023-01-15T19:19:22;5.50;99.90
19555;DHT22;9924;50.828;6.440;2023-01-15T19:22:07;5.50;99.90
19555;DHT22;9924;50.828;6.440;2023-01-15T19:25:11;5.50;99.90
19555;DHT22;9924;50.828;6.440;2023-01-15T19:27:55;5.70;99.90
19555;DHT22;9924;50.828;6.440;2023-01-15T19:30:42;5.80;99.90
19555;DHT22;9924;50.828;6.440;2023-01-15T19:33:49;5.80;99.90
19555;DHT22;9924;50.828;6.440;2023-01-15T19:36:34;5.90;99.90
19555;DHT22;9924;50.828;6.440;2023-01-15T19:39:18;5.90;99.90
19555;DHT22;9924;50.828;6.440;2023-01-15T19:42:03;5.90;99.90
19555;DHT22;9924;50.828;6.440;2023-01-15T19:45:06;5.90;99.90
19555;DHT22;9924;50.828;6.440;2023-01-15T19:48:12;6.00;99.90
19555;DHT22;9924;50.828;6.440;2023-01-15T19:51:22;6.10;99.90
19555;DHT22;9924;50.828;6.440;2023-01-15T19:54:06;6.10;99.90
19555;DHT22;9924;50.828;6.440;2023-01-15T19:56:54;6.20;99.90
19555;DHT22;9924;50.828;6.440;2023-01-15T19:59:40;6.20;99.90
19555;DHT22;9924;50.828;6.440;2023-01-15T20:02:32;6.30;99.90
19555;DHT22;9924;50.828;6.440;2023-01-15T20:05:18;6.20;99.90
19555;DHT22;9924;50.828;6.440;2023-01-15T20:08:02;6.10;99.90
19555;DHT22;9924;50.828;6.440;2023-01-15T20:10:49;6.10;99.90
19555;DHT22;9924;50.828;6.440;2023-01-15T20:13:33;6.00;99.90
19555;DHT22;9924;50.828;6.440;2023-01-15T20:16:34;5.90;99.90
19555;DHT22;9924;50.828;6.440;2023-01-15T20:19:19;5.90;99.90
19555;DHT22;9924;50.828;6.440;2023-01-15T20:22:03;5.90;99.90